Impacts TAF Board INFO
IDs:

KTPA - Tampa Intl Arpt, FL, US

Issued at 2100 UTC 02 Dec 2016
Updated at 2218 UTC 02 Dec 2016
Potential Impact None Slight Moderate High
Time2153Z 02/23Z 03/00Z 03/01Z 03/02Z 03/03Z 03/04Z 03/05Z 03/06Z 03/07Z 03/08Z 03/09Z 03/10Z 03/11Z
Type OBS PRVL PRVL PRVL PRVL PRVL PRVL PRVL PRVL PRVL PRVL PRVL PRVL PRVL
VIS 10 >6 >6 >6 >6 >6 >6 >6 >6 >6 >6 >6 >6 >6
CIG -- -- -- -- -- -- -- -- -- -- -- -- -- --
Cover FEW SKC SKC SKC SKC SKC SKC SKC SKC SKC SKC SKC SKC SKC
FltCat VFR VFR VFR VFR VFR VFR VFR VFR VFR VFR VFR VFR VFR VFR
WX -- -- -- -- -- -- -- -- -- -- -- -- -- --
WDir 30 40 40 40 40 40 40 40 40 40 40 40 40 40
WSpd 5 9 9 9 9 9 9 9 9 9 9 9 9 9
WGst -- -- -- -- -- -- -- -- -- -- -- -- -- --

Raw TAF
KTPA 022100Z 0221/0318 04009KT P6SM SKC
  FM031400 06009KT P6SM SCT120


Raw METAR
KTPA 022153Z 03005KT 10SM FEW140 FEW250 24/01 A3010 RMK AO2 SLP191 FU NE-E T02390011
KTPA 022053Z 04008KT 10SM CLR 24/02 A3009 RMK AO2 SLP187 T02440017 56012
KTPA 021953Z 01008KT 10SM FEW070 24/03 A3010 RMK AO2 SLP191 T02440028

METAR Board
Radar Display
Forecast Discussion